sensor_id;sensor_type;location;lat;lon;timestamp;P1;durP1;ratioP1;P2;durP2;ratioP2
10389;SDS011;5241;47.830;12.972;2023-09-18T00:00:51;4.07;;;2.40;;
10389;SDS011;5241;47.830;12.972;2023-09-18T00:03:18;2.77;;;2.27;;
10389;SDS011;5241;47.830;12.972;2023-09-18T00:05:45;2.80;;;2.47;;
10389;SDS011;5241;47.830;12.972;2023-09-18T00:08:13;2.53;;;2.17;;
10389;SDS011;5241;47.830;12.972;2023-09-18T00:10:39;2.30;;;2.10;;
10389;SDS011;5241;47.830;12.972;2023-09-18T00:13:04;2.60;;;1.97;;
10389;SDS011;5241;47.830;12.972;2023-09-18T00:15:30;2.23;;;2.03;;
10389;SDS011;5241;47.830;12.972;2023-09-18T00:17:56;2.70;;;2.07;;
10389;SDS011;5241;47.830;12.972;2023-09-18T00:20:21;2.57;;;1.97;;
10389;SDS011;5241;47.830;12.972;2023-09-18T00:22:51;2.40;;;2.00;;
10389;SDS011;5241;47.830;12.972;2023-09-18T00:25:18;2.40;;;2.20;;
10389;SDS011;5241;47.830;12.972;2023-09-18T00:27:44;2.33;;;2.13;;
10389;SDS011;5241;47.830;12.972;2023-09-18T00:30:09;4.00;;;2.57;;
10389;SDS011;5241;47.830;12.972;2023-09-18T00:32:36;3.20;;;2.40;;
10389;SDS011;5241;47.830;12.972;2023-09-18T00:35:02;2.10;;;1.90;;
10389;SDS011;5241;47.830;12.972;2023-09-18T00:37:28;2.90;;;2.23;;
10389;SDS011;5241;47.830;12.972;2023-09-18T00:39:54;3.80;;;2.30;;
10389;SDS011;5241;47.830;12.972;2023-09-18T00:42:19;2.67;;;2.43;;
10389;SDS011;5241;47.830;12.972;2023-09-18T00:44:47;2.27;;;2.07;;
10389;SDS011;5241;47.830;12.972;2023-09-18T00:47:14;4.00;;;2.10;;
10389;SDS011;5241;47.830;12.972;2023-09-18T00:49:40;2.23;;;2.03;;
10389;SDS011;5241;47.830;12.972;2023-09-18T00:52:08;2.73;;;2.53;;
10389;SDS011;5241;47.830;12.972;2023-09-18T00:54:35;2.53;;;2.10;;
10389;SDS011;5241;47.830;12.972;2023-09-18T00:57:03;2.40;;;2.20;;
10389;SDS011;5241;47.830;12.972;2023-09-18T00:59:29;2.90;;;2.30;;
10389;SDS011;5241;47.830;12.972;2023-09-18T01:01:56;2.87;;;2.00;;
10389;SDS011;5241;47.830;12.972;2023-09-18T01:04:21;2.77;;;2.30;;
10389;SDS011;5241;47.830;12.972;2023-09-18T01:06:50;2.80;;;2.13;;
10389;SDS011;5241;47.830;12.972;2023-09-18T01:09:16;2.33;;;2.13;;
10389;SDS011;5241;47.830;12.972;2023-09-18T01:17:09;2.60;;;2.20;;
10389;SDS011;5241;47.830;12.972;2023-09-18T01:19:36;4.43;;;2.10;;
10389;SDS011;5241;47.830;12.972;2023-09-18T01:22:06;2.63;;;2.00;;
10389;SDS011;5241;47.830;12.972;2023-09-18T01:24:33;2.63;;;2.00;;
10389;SDS011;5241;47.830;12.972;2023-09-18T01:27:00;2.27;;;2.07;;
10389;SDS011;5241;47.830;12.972;2023-09-18T01:29:25;2.60;;;2.40;;
10389;SDS011;5241;47.830;12.972;2023-09-18T01:31:51;2.87;;;2.07;;
10389;SDS011;5241;47.830;12.972;2023-09-18T01:34:28;2.73;;;2.20;;
10389;SDS011;5241;47.830;12.972;2023-09-18T01:36:58;2.10;;;1.93;;
10389;SDS011;5241;47.830;12.972;2023-09-18T01:39:25;3.27;;;2.10;;
10389;SDS011;5241;47.830;12.972;2023-09-18T01:41:55;2.07;;;1.87;;
10389;SDS011;5241;47.830;12.972;2023-09-18T01:44:23;2.73;;;1.87;;
10389;SDS011;5241;47.830;12.972;2023-09-18T01:46:48;2.20;;;2.00;;
10389;SDS011;5241;47.830;12.972;2023-09-18T01:49:16;2.37;;;2.17;;
10389;SDS011;5241;47.830;12.972;2023-09-18T01:51:51;2.27;;;1.93;;
10389;SDS011;5241;47.830;12.972;2023-09-18T01:54:16;2.50;;;2.30;;
10389;SDS011;5241;47.830;12.972;2023-09-18T01:56:42;2.20;;;1.83;;
10389;SDS011;5241;47.830;12.972;2023-09-18T01:59:07;2.83;;;2.50;;
10389;SDS011;5241;47.830;12.972;2023-09-18T02:01:33;2.33;;;2.13;;
10389;SDS011;5241;47.830;12.972;2023-09-18T02:04:00;3.60;;;2.20;;
10389;SDS011;5241;47.830;12.972;2023-09-18T02:06:25;2.93;;;1.93;;
10389;SDS011;5241;47.830;12.972;2023-09-18T02:08:51;2.50;;;2.10;;
10389;SDS011;5241;47.830;12.972;2023-09-18T02:11:16;3.20;;;2.40;;
10389;SDS011;5241;47.830;12.972;2023-09-18T02:13:42;3.17;;;2.00;;
10389;SDS011;5241;47.830;12.972;2023-09-18T02:16:07;2.60;;;2.10;;
10389;SDS011;5241;47.830;12.972;2023-09-18T02:18:33;2.73;;;2.20;;
10389;SDS011;5241;47.830;12.972;2023-09-18T02:20:58;2.90;;;2.33;;
10389;SDS011;5241;47.830;12.972;2023-09-18T02:23:24;3.80;;;2.10;;
10389;SDS011;5241;47.830;12.972;2023-09-18T02:25:56;2.40;;;2.20;;
10389;SDS011;5241;47.830;12.972;2023-09-18T02:28:24;2.37;;;2.17;;
10389;SDS011;5241;47.830;12.972;2023-09-18T02:30:50;2.20;;;2.00;;
10389;SDS011;5241;47.830;12.972;2023-09-18T02:33:16;3.20;;;2.13;;
10389;SDS011;5241;47.830;12.972;2023-09-18T02:35:42;2.27;;;2.07;;
10389;SDS011;5241;47.830;12.972;2023-09-18T02:38:10;2.80;;;2.47;;
10389;SDS011;5241;47.830;12.972;2023-09-18T02:40:36;2.53;;;2.10;;
10389;SDS011;5241;47.830;12.972;2023-09-18T02:43:01;3.23;;;2.20;;
10389;SDS011;5241;47.830;12.972;2023-09-18T02:45:27;2.10;;;1.90;;
10389;SDS011;5241;47.830;12.972;2023-09-18T02:47:53;2.20;;;1.90;;
10389;SDS011;5241;47.830;12.972;2023-09-18T02:50:18;3.40;;;2.20;;
10389;SDS011;5241;47.830;12.972;2023-09-18T02:52:44;2.50;;;1.93;;
10389;SDS011;5241;47.830;12.972;2023-09-18T02:55:10;3.80;;;2.27;;
10389;SDS011;5241;47.830;12.972;2023-09-18T02:57:35;3.03;;;2.30;;
10389;SDS011;5241;47.830;12.972;2023-09-18T03:00:01;2.47;;;2.00;;
10389;SDS011;5241;47.830;12.972;2023-09-18T03:02:28;2.20;;;2.00;;
10389;SDS011;5241;47.830;12.972;2023-09-18T03:04:54;2.37;;;2.13;;
10389;SDS011;5241;47.830;12.972;2023-09-18T03:07:19;2.63;;;2.17;;
10389;SDS011;5241;47.830;12.972;2023-09-18T03:09:45;2.60;;;2.10;;
10389;SDS011;5241;47.830;12.972;2023-09-18T03:12:10;2.40;;;2.13;;
10389;SDS011;5241;47.830;12.972;2023-09-18T03:14:36;2.80;;;2.20;;
10389;SDS011;5241;47.830;12.972;2023-09-18T03:17:01;4.20;;;2.40;;
10389;SDS011;5241;47.830;12.972;2023-09-18T03:19:27;2.20;;;2.00;;
10389;SDS011;5241;47.830;12.972;2023-09-18T03:21:52;3.80;;;2.17;;
10389;SDS011;5241;47.830;12.972;2023-09-18T03:24:18;2.57;;;2.20;;
10389;SDS011;5241;47.830;12.972;2023-09-18T03:26:43;1.80;;;1.70;;
10389;SDS011;5241;47.830;12.972;2023-09-18T03:29:09;3.73;;;2.23;;
10389;SDS011;5241;47.830;12.972;2023-09-18T03:31:35;2.40;;;2.13;;
10389;SDS011;5241;47.830;12.972;2023-09-18T03:34:01;3.27;;;2.07;;
10389;SDS011;5241;47.830;12.972;2023-09-18T03:36:26;3.37;;;2.13;;
10389;SDS011;5241;47.830;12.972;2023-09-18T03:38:52;3.13;;;2.13;;
10389;SDS011;5241;47.830;12.972;2023-09-18T03:41:17;2.57;;;2.23;;
10389;SDS011;5241;47.830;12.972;2023-09-18T03:43:43;3.80;;;2.23;;
10389;SDS011;5241;47.830;12.972;2023-09-18T03:46:08;3.87;;;2.40;;
10389;SDS011;5241;47.830;12.972;2023-09-18T03:48:34;4.27;;;2.10;;
10389;SDS011;5241;47.830;12.972;2023-09-18T03:51:05;4.17;;;2.20;;
10389;SDS011;5241;47.830;12.972;2023-09-18T03:53:35;2.73;;;1.90;;
10389;SDS011;5241;47.830;12.972;2023-09-18T03:56:00;2.90;;;2.10;;
10389;SDS011;5241;47.830;12.972;2023-09-18T03:58:26;3.30;;;2.20;;
10389;SDS011;5241;47.830;12.972;2023-09-18T04:00:52;2.97;;;2.30;;
10389;SDS011;5241;47.830;12.972;2023-09-18T04:03:18;2.20;;;1.97;;
10389;SDS011;5241;47.830;12.972;2023-09-18T04:05:43;2.03;;;1.83;;
10389;SDS011;5241;47.830;12.972;2023-09-18T04:08:09;2.73;;;2.27;;
10389;SDS011;5241;47.830;12.972;2023-09-18T04:10:36;2.60;;;1.93;;
10389;SDS011;5241;47.830;12.972;2023-09-18T04:13:01;2.03;;;1.90;;
10389;SDS011;5241;47.830;12.972;2023-09-18T04:15:27;3.03;;;2.10;;
10389;SDS011;5241;47.830;12.972;2023-09-18T04:17:55;2.67;;;2.00;;
10389;SDS011;5241;47.830;12.972;2023-09-18T04:20:21;2.40;;;1.93;;
10389;SDS011;5241;47.830;12.972;2023-09-18T04:22:48;2.57;;;2.10;;
10389;SDS011;5241;47.830;12.972;2023-09-18T04:25:44;2.47;;;2.10;;
10389;SDS011;5241;47.830;12.972;2023-09-18T04:28:11;2.83;;;2.30;;
10389;SDS011;5241;47.830;12.972;2023-09-18T04:30:40;2.87;;;2.37;;
10389;SDS011;5241;47.830;12.972;2023-09-18T04:33:06;2.83;;;2.27;;
10389;SDS011;5241;47.830;12.972;2023-09-18T04:35:31;2.50;;;2.30;;
10389;SDS011;5241;47.830;12.972;2023-09-18T04:37:58;2.60;;;2.00;;
10389;SDS011;5241;47.830;12.972;2023-09-18T04:40:24;3.17;;;2.50;;
10389;SDS011;5241;47.830;12.972;2023-09-18T04:42:51;3.23;;;2.30;;
10389;SDS011;5241;47.830;12.972;2023-09-18T04:45:17;2.90;;;2.07;;
10389;SDS011;5241;47.830;12.972;2023-09-18T04:47:42;3.60;;;2.00;;
10389;SDS011;5241;47.830;12.972;2023-09-18T04:50:08;2.57;;;2.13;;
10389;SDS011;5241;47.830;12.972;2023-09-18T04:52:35;2.97;;;2.03;;
10389;SDS011;5241;47.830;12.972;2023-09-18T04:55:01;3.30;;;2.30;;
10389;SDS011;5241;47.830;12.972;2023-09-18T04:57:26;2.83;;;2.20;;
10389;SDS011;5241;47.830;12.972;2023-09-18T04:59:52;3.53;;;2.10;;
10389;SDS011;5241;47.830;12.972;2023-09-18T05:02:17;3.87;;;2.53;;
10389;SDS011;5241;47.830;12.972;2023-09-18T05:04:43;3.67;;;2.43;;
10389;SDS011;5241;47.830;12.972;2023-09-18T05:07:08;3.60;;;2.30;;
10389;SDS011;5241;47.830;12.972;2023-09-18T05:09:34;2.37;;;2.10;;
10389;SDS011;5241;47.830;12.972;2023-09-18T05:12:00;5.90;;;2.30;;
10389;SDS011;5241;47.830;12.972;2023-09-18T05:14:25;4.93;;;2.73;;
10389;SDS011;5241;47.830;12.972;2023-09-18T05:16:51;4.97;;;2.50;;
10389;SDS011;5241;47.830;12.972;2023-09-18T05:19:17;3.90;;;2.40;;
10389;SDS011;5241;47.830;12.972;2023-09-18T05:21:43;3.10;;;2.40;;
10389;SDS011;5241;47.830;12.972;2023-09-18T05:24:08;3.30;;;2.20;;
10389;SDS011;5241;47.830;12.972;2023-09-18T05:26:34;2.63;;;2.20;;
10389;SDS011;5241;47.830;12.972;2023-09-18T05:29:00;2.50;;;2.30;;
10389;SDS011;5241;47.830;12.972;2023-09-18T05:31:25;2.63;;;2.10;;
10389;SDS011;5241;47.830;12.972;2023-09-18T05:33:51;2.97;;;2.27;;
10389;SDS011;5241;47.830;12.972;2023-09-18T05:36:17;4.43;;;2.20;;
10389;SDS011;5241;47.830;12.972;2023-09-18T05:38:42;2.23;;;2.03;;
10389;SDS011;5241;47.830;12.972;2023-09-18T05:41:08;3.43;;;2.10;;
10389;SDS011;5241;47.830;12.972;2023-09-18T05:43:34;3.00;;;2.17;;
10389;SDS011;5241;47.830;12.972;2023-09-18T05:46:01;3.07;;;2.37;;
10389;SDS011;5241;47.830;12.972;2023-09-18T05:48:26;4.23;;;2.23;;
10389;SDS011;5241;47.830;12.972;2023-09-18T05:50:52;4.07;;;2.27;;
10389;SDS011;5241;47.830;12.972;2023-09-18T05:53:19;2.87;;;2.07;;
10389;SDS011;5241;47.830;12.972;2023-09-18T05:55:45;2.23;;;2.03;;
10389;SDS011;5241;47.830;12.972;2023-09-18T05:58:12;3.80;;;2.63;;
10389;SDS011;5241;47.830;12.972;2023-09-18T06:00:39;2.47;;;2.10;;
10389;SDS011;5241;47.830;12.972;2023-09-18T06:03:05;3.77;;;2.53;;
10389;SDS011;5241;47.830;12.972;2023-09-18T06:05:31;3.20;;;2.40;;
10389;SDS011;5241;47.830;12.972;2023-09-18T06:07:58;2.30;;;2.03;;
10389;SDS011;5241;47.830;12.972;2023-09-18T06:10:25;3.63;;;2.10;;
10389;SDS011;5241;47.830;12.972;2023-09-18T06:12:50;5.73;;;2.37;;
10389;SDS011;5241;47.830;12.972;2023-09-18T06:15:16;3.63;;;2.07;;
10389;SDS011;5241;47.830;12.972;2023-09-18T06:17:42;2.70;;;1.90;;
10389;SDS011;5241;47.830;12.972;2023-09-18T06:20:08;3.23;;;2.10;;
10389;SDS011;5241;47.830;12.972;2023-09-18T06:22:35;2.57;;;2.10;;
10389;SDS011;5241;47.830;12.972;2023-09-18T06:25:05;5.07;;;2.27;;
10389;SDS011;5241;47.830;12.972;2023-09-18T06:27:34;2.20;;;2.00;;
10389;SDS011;5241;47.830;12.972;2023-09-18T06:30:00;2.67;;;2.30;;
10389;SDS011;5241;47.830;12.972;2023-09-18T06:32:25;3.63;;;2.27;;
10389;SDS011;5241;47.830;12.972;2023-09-18T06:34:51;2.47;;;2.27;;
10389;SDS011;5241;47.830;12.972;2023-09-18T06:37:17;2.30;;;2.10;;
10389;SDS011;5241;47.830;12.972;2023-09-18T06:39:43;2.90;;;2.10;;
10389;SDS011;5241;47.830;12.972;2023-09-18T06:42:09;2.53;;;2.30;;
10389;SDS011;5241;47.830;12.972;2023-09-18T06:44:34;3.37;;;2.17;;
10389;SDS011;5241;47.830;12.972;2023-09-18T06:47:00;2.20;;;2.00;;
10389;SDS011;5241;47.830;12.972;2023-09-18T06:49:25;3.33;;;2.43;;
10389;SDS011;5241;47.830;12.972;2023-09-18T06:51:51;4.00;;;2.33;;
10389;SDS011;5241;47.830;12.972;2023-09-18T06:54:17;4.13;;;2.47;;
10389;SDS011;5241;47.830;12.972;2023-09-18T06:56:43;5.10;;;2.37;;
10389;SDS011;5241;47.830;12.972;2023-09-18T06:59:09;4.87;;;2.20;;
10389;SDS011;5241;47.830;12.972;2023-09-18T07:01:36;2.57;;;2.30;;
10389;SDS011;5241;47.830;12.972;2023-09-18T07:04:02;3.87;;;1.97;;
10389;SDS011;5241;47.830;12.972;2023-09-18T07:06:29;3.07;;;2.30;;
10389;SDS011;5241;47.830;12.972;2023-09-18T07:08:54;3.93;;;2.10;;
10389;SDS011;5241;47.830;12.972;2023-09-18T07:11:20;2.00;;;1.80;;
10389;SDS011;5241;47.830;12.972;2023-09-18T07:13:46;2.73;;;1.80;;
10389;SDS011;5241;47.830;12.972;2023-09-18T07:16:11;3.23;;;2.17;;
10389;SDS011;5241;47.830;12.972;2023-09-18T07:18:37;4.90;;;2.47;;
10389;SDS011;5241;47.830;12.972;2023-09-18T07:21:02;3.17;;;2.20;;
10389;SDS011;5241;47.830;12.972;2023-09-18T07:23:28;3.93;;;2.80;;
10389;SDS011;5241;47.830;12.972;2023-09-18T07:25:54;7.73;;;2.60;;
10389;SDS011;5241;47.830;12.972;2023-09-18T07:28:19;3.60;;;2.67;;
10389;SDS011;5241;47.830;12.972;2023-09-18T07:30:45;10.10;;;4.43;;
10389;SDS011;5241;47.830;12.972;2023-09-18T07:33:11;7.07;;;4.70;;
10389;SDS011;5241;47.830;12.972;2023-09-18T07:35:38;7.97;;;4.60;;
10389;SDS011;5241;47.830;12.972;2023-09-18T07:38:07;5.57;;;4.13;;
10389;SDS011;5241;47.830;12.972;2023-09-18T07:40:34;5.33;;;4.23;;
10389;SDS011;5241;47.830;12.972;2023-09-18T07:43:00;6.93;;;5.53;;
10389;SDS011;5241;47.830;12.972;2023-09-18T07:45:26;5.93;;;4.30;;
10389;SDS011;5241;47.830;12.972;2023-09-18T07:47:51;4.17;;;3.07;;
10389;SDS011;5241;47.830;12.972;2023-09-18T07:50:17;3.40;;;2.77;;
10389;SDS011;5241;47.830;12.972;2023-09-18T07:52:43;3.87;;;2.70;;
10389;SDS011;5241;47.830;12.972;2023-09-18T07:55:08;4.90;;;3.80;;
10389;SDS011;5241;47.830;12.972;2023-09-18T07:57:34;9.07;;;5.90;;
10389;SDS011;5241;47.830;12.972;2023-09-18T08:00:00;10.90;;;6.13;;
10389;SDS011;5241;47.830;12.972;2023-09-18T08:02:32;6.57;;;5.37;;
10389;SDS011;5241;47.830;12.972;2023-09-18T08:05:00;6.47;;;5.03;;
10389;SDS011;5241;47.830;12.972;2023-09-18T08:07:26;9.70;;;6.50;;
10389;SDS011;5241;47.830;12.972;2023-09-18T08:09:53;9.13;;;5.80;;
10389;SDS011;5241;47.830;12.972;2023-09-18T08:12:18;5.17;;;3.43;;
10389;SDS011;5241;47.830;12.972;2023-09-18T08:14:44;5.70;;;3.03;;
10389;SDS011;5241;47.830;12.972;2023-09-18T08:17:09;5.57;;;4.13;;
10389;SDS011;5241;47.830;12.972;2023-09-18T08:19:35;7.00;;;4.77;;
10389;SDS011;5241;47.830;12.972;2023-09-18T08:22:02;4.43;;;3.53;;
10389;SDS011;5241;47.830;12.972;2023-09-18T08:24:29;5.63;;;3.20;;
10389;SDS011;5241;47.830;12.972;2023-09-18T08:26:54;3.23;;;2.50;;
10389;SDS011;5241;47.830;12.972;2023-09-18T08:29:20;3.17;;;2.10;;
10389;SDS011;5241;47.830;12.972;2023-09-18T08:31:47;3.37;;;2.30;;
10389;SDS011;5241;47.830;12.972;2023-09-18T08:34:13;5.40;;;3.23;;
10389;SDS011;5241;47.830;12.972;2023-09-18T08:36:38;4.33;;;2.33;;
10389;SDS011;5241;47.830;12.972;2023-09-18T08:39:04;5.33;;;2.17;;
10389;SDS011;5241;47.830;12.972;2023-09-18T08:41:32;2.57;;;2.00;;
10389;SDS011;5241;47.830;12.972;2023-09-18T08:44:03;2.33;;;1.87;;
10389;SDS011;5241;47.830;12.972;2023-09-18T08:46:30;4.37;;;2.10;;
10389;SDS011;5241;47.830;12.972;2023-09-18T08:48:59;2.33;;;1.93;;
10389;SDS011;5241;47.830;12.972;2023-09-18T08:51:25;5.07;;;1.83;;
10389;SDS011;5241;47.830;12.972;2023-09-18T08:53:51;3.00;;;1.70;;
10389;SDS011;5241;47.830;12.972;2023-09-18T08:56:18;2.93;;;1.97;;
10389;SDS011;5241;47.830;12.972;2023-09-18T08:58:45;2.17;;;1.87;;
10389;SDS011;5241;47.830;12.972;2023-09-18T09:01:11;2.83;;;1.60;;
10389;SDS011;5241;47.830;12.972;2023-09-18T09:03:37;2.93;;;1.53;;
10389;SDS011;5241;47.830;12.972;2023-09-18T09:06:04;4.30;;;2.00;;
10389;SDS011;5241;47.830;12.972;2023-09-18T09:08:31;5.30;;;1.70;;
10389;SDS011;5241;47.830;12.972;2023-09-18T09:10:58;2.27;;;2.00;;
10389;SDS011;5241;47.830;12.972;2023-09-18T09:13:24;4.97;;;2.43;;
10389;SDS011;5241;47.830;12.972;2023-09-18T09:15:56;5.97;;;2.00;;
10389;SDS011;5241;47.830;12.972;2023-09-18T09:18:24;2.37;;;1.80;;
10389;SDS011;5241;47.830;12.972;2023-09-18T09:21:02;3.07;;;1.90;;
10389;SDS011;5241;47.830;12.972;2023-09-18T09:23:44;3.83;;;1.80;;
10389;SDS011;5241;47.830;12.972;2023-09-18T09:26:15;4.30;;;1.70;;
10389;SDS011;5241;47.830;12.972;2023-09-18T09:28:42;3.97;;;2.00;;
10389;SDS011;5241;47.830;12.972;2023-09-18T09:31:09;2.93;;;1.90;;
10389;SDS011;5241;47.830;12.972;2023-09-18T09:33:35;3.13;;;1.50;;
10389;SDS011;5241;47.830;12.972;2023-09-18T09:36:04;4.80;;;1.80;;
10389;SDS011;5241;47.830;12.972;2023-09-18T09:38:30;1.70;;;1.60;;
10389;SDS011;5241;47.830;12.972;2023-09-18T09:40:59;3.00;;;1.63;;
10389;SDS011;5241;47.830;12.972;2023-09-18T09:43:31;5.27;;;1.70;;
10389;SDS011;5241;47.830;12.972;2023-09-18T09:45:59;2.70;;;1.60;;
10389;SDS011;5241;47.830;12.972;2023-09-18T09:48:27;3.50;;;1.93;;
10389;SDS011;5241;47.830;12.972;2023-09-18T09:50:57;2.27;;;1.80;;
10389;SDS011;5241;47.830;12.972;2023-09-18T09:53:43;3.10;;;1.90;;
10389;SDS011;5241;47.830;12.972;2023-09-18T09:56:13;2.00;;;1.80;;
10389;SDS011;5241;47.830;12.972;2023-09-18T09:58:39;2.57;;;1.97;;
10389;SDS011;5241;47.830;12.972;2023-09-18T10:01:09;5.50;;;2.47;;
10389;SDS011;5241;47.830;12.972;2023-09-18T10:03:43;3.80;;;2.20;;
10389;SDS011;5241;47.830;12.972;2023-09-18T10:06:09;3.53;;;2.13;;
10389;SDS011;5241;47.830;12.972;2023-09-18T10:08:38;3.30;;;2.10;;
10389;SDS011;5241;47.830;12.972;2023-09-18T10:11:08;3.43;;;2.37;;
10389;SDS011;5241;47.830;12.972;2023-09-18T10:13:45;3.13;;;2.23;;
10389;SDS011;5241;47.830;12.972;2023-09-18T10:16:14;3.70;;;2.03;;
10389;SDS011;5241;47.830;12.972;2023-09-18T10:19:02;4.73;;;2.63;;
10389;SDS011;5241;47.830;12.972;2023-09-18T10:24:39;5.13;;;2.20;;
10389;SDS011;5241;47.830;12.972;2023-09-18T10:27:08;5.50;;;2.00;;
10389;SDS011;5241;47.830;12.972;2023-09-18T10:29:39;3.87;;;2.13;;
10389;SDS011;5241;47.830;12.972;2023-09-18T10:32:06;7.43;;;2.27;;
10389;SDS011;5241;47.830;12.972;2023-09-18T10:34:33;4.83;;;2.43;;
10389;SDS011;5241;47.830;12.972;2023-09-18T10:36:59;4.60;;;2.20;;
10389;SDS011;5241;47.830;12.972;2023-09-18T10:39:26;4.97;;;2.10;;
10389;SDS011;5241;47.830;12.972;2023-09-18T10:41:54;5.70;;;2.10;;
10389;SDS011;5241;47.830;12.972;2023-09-18T10:44:22;3.50;;;2.10;;
10389;SDS011;5241;47.830;12.972;2023-09-18T10:46:48;4.93;;;2.20;;
10389;SDS011;5241;47.830;12.972;2023-09-18T10:49:16;5.27;;;2.17;;
10389;SDS011;5241;47.830;12.972;2023-09-18T10:51:43;7.07;;;1.97;;
10389;SDS011;5241;47.830;12.972;2023-09-18T10:54:11;2.73;;;1.90;;
10389;SDS011;5241;47.830;12.972;2023-09-18T10:56:43;4.57;;;1.83;;
10389;SDS011;5241;47.830;12.972;2023-09-18T10:59:09;3.47;;;2.00;;
10389;SDS011;5241;47.830;12.972;2023-09-18T11:01:35;5.20;;;2.43;;
10389;SDS011;5241;47.830;12.972;2023-09-18T11:04:03;4.90;;;2.27;;
10389;SDS011;5241;47.830;12.972;2023-09-18T11:06:59;5.73;;;2.20;;
10389;SDS011;5241;47.830;12.972;2023-09-18T11:09:27;3.80;;;2.20;;
10389;SDS011;5241;47.830;12.972;2023-09-18T11:11:54;4.40;;;2.13;;
10389;SDS011;5241;47.830;12.972;2023-09-18T11:17:35;4.57;;;2.10;;
10389;SDS011;5241;47.830;12.972;2023-09-18T11:20:09;5.63;;;2.80;;
10389;SDS011;5241;47.830;12.972;2023-09-18T11:25:38;5.20;;;2.23;;
10389;SDS011;5241;47.830;12.972;2023-09-18T11:28:13;5.30;;;2.40;;
10389;SDS011;5241;47.830;12.972;2023-09-18T11:30:38;5.67;;;2.27;;
10389;SDS011;5241;47.830;12.972;2023-09-18T11:33:35;4.17;;;2.33;;
10389;SDS011;5241;47.830;12.972;2023-09-18T11:36:09;4.30;;;2.30;;
10389;SDS011;5241;47.830;12.972;2023-09-18T11:38:58;2.67;;;1.80;;
10389;SDS011;5241;47.830;12.972;2023-09-18T11:41:29;4.93;;;1.97;;
10389;SDS011;5241;47.830;12.972;2023-09-18T11:46:44;3.30;;;1.90;;
10389;SDS011;5241;47.830;12.972;2023-09-18T11:49:11;7.43;;;1.87;;
10389;SDS011;5241;47.830;12.972;2023-09-18T11:51:37;5.20;;;2.23;;
10389;SDS011;5241;47.830;12.972;2023-09-18T11:54:03;4.83;;;2.10;;
10389;SDS011;5241;47.830;12.972;2023-09-18T11:56:32;7.10;;;2.57;;
10389;SDS011;5241;47.830;12.972;2023-09-18T11:58:58;7.50;;;2.57;;
10389;SDS011;5241;47.830;12.972;2023-09-18T12:01:25;4.63;;;2.50;;
10389;SDS011;5241;47.830;12.972;2023-09-18T12:04:02;2.60;;;2.40;;
10389;SDS011;5241;47.830;12.972;2023-09-18T12:06:35;4.23;;;2.17;;
10389;SDS011;5241;47.830;12.972;2023-09-18T12:09:01;3.63;;;2.20;;
10389;SDS011;5241;47.830;12.972;2023-09-18T12:11:28;4.90;;;2.20;;
10389;SDS011;5241;47.830;12.972;2023-09-18T12:13:55;3.77;;;2.07;;
10389;SDS011;5241;47.830;12.972;2023-09-18T12:16:20;4.63;;;1.90;;
10389;SDS011;5241;47.830;12.972;2023-09-18T12:18:46;7.27;;;2.30;;
10389;SDS011;5241;47.830;12.972;2023-09-18T12:21:15;4.27;;;2.10;;
10389;SDS011;5241;47.830;12.972;2023-09-18T12:23:45;5.20;;;2.07;;
10389;SDS011;5241;47.830;12.972;2023-09-18T12:26:12;4.20;;;2.17;;
10389;SDS011;5241;47.830;12.972;2023-09-18T12:28:40;4.93;;;2.23;;
10389;SDS011;5241;47.830;12.972;2023-09-18T12:31:10;5.43;;;2.30;;
10389;SDS011;5241;47.830;12.972;2023-09-18T12:33:36;5.80;;;2.00;;
10389;SDS011;5241;47.830;12.972;2023-09-18T12:36:03;3.77;;;1.93;;
10389;SDS011;5241;47.830;12.972;2023-09-18T12:38:30;5.73;;;2.00;;
10389;SDS011;5241;47.830;12.972;2023-09-18T12:40:57;5.10;;;2.27;;
10389;SDS011;5241;47.830;12.972;2023-09-18T12:43:31;4.80;;;1.97;;
10389;SDS011;5241;47.830;12.972;2023-09-18T12:45:59;6.57;;;2.40;;
10389;SDS011;5241;47.830;12.972;2023-09-18T12:48:26;2.73;;;2.03;;
10389;SDS011;5241;47.830;12.972;2023-09-18T12:50:52;7.03;;;2.30;;
10389;SDS011;5241;47.830;12.972;2023-09-18T12:53:21;3.90;;;2.33;;
10389;SDS011;5241;47.830;12.972;2023-09-18T12:55:48;3.23;;;2.20;;
10389;SDS011;5241;47.830;12.972;2023-09-18T12:58:17;7.67;;;2.20;;
10389;SDS011;5241;47.830;12.972;2023-09-18T13:00:45;5.50;;;2.60;;
10389;SDS011;5241;47.830;12.972;2023-09-18T13:03:17;6.93;;;2.37;;
10389;SDS011;5241;47.830;12.972;2023-09-18T13:05:43;6.33;;;2.20;;
10389;SDS011;5241;47.830;12.972;2023-09-18T13:08:09;8.27;;;2.20;;
10389;SDS011;5241;47.830;12.972;2023-09-18T13:10:44;4.63;;;2.00;;
10389;SDS011;5241;47.830;12.972;2023-09-18T13:13:17;5.27;;;2.40;;
10389;SDS011;5241;47.830;12.972;2023-09-18T13:15:47;4.93;;;2.23;;
10389;SDS011;5241;47.830;12.972;2023-09-18T13:18:14;8.80;;;2.20;;
10389;SDS011;5241;47.830;12.972;2023-09-18T13:20:41;4.40;;;2.20;;
10389;SDS011;5241;47.830;12.972;2023-09-18T13:23:07;3.83;;;1.90;;
10389;SDS011;5241;47.830;12.972;2023-09-18T13:25:39;3.80;;;2.20;;
10389;SDS011;5241;47.830;12.972;2023-09-18T13:28:09;5.80;;;2.20;;
10389;SDS011;5241;47.830;12.972;2023-09-18T13:30:36;2.80;;;2.07;;
10389;SDS011;5241;47.830;12.972;2023-09-18T13:35:39;3.63;;;2.27;;
10389;SDS011;5241;47.830;12.972;2023-09-18T13:38:06;6.47;;;2.10;;
10389;SDS011;5241;47.830;12.972;2023-09-18T13:40:33;5.10;;;2.10;;
10389;SDS011;5241;47.830;12.972;2023-09-18T13:43:05;2.67;;;1.83;;
10389;SDS011;5241;47.830;12.972;2023-09-18T13:45:32;7.27;;;1.73;;
10389;SDS011;5241;47.830;12.972;2023-09-18T13:48:00;2.87;;;1.70;;
10389;SDS011;5241;47.830;12.972;2023-09-18T13:50:26;5.83;;;1.83;;
10389;SDS011;5241;47.830;12.972;2023-09-18T13:52:52;3.50;;;1.57;;
10389;SDS011;5241;47.830;12.972;2023-09-18T13:55:18;11.80;;;1.60;;
10389;SDS011;5241;47.830;12.972;2023-09-18T13:57:44;3.40;;;1.47;;
10389;SDS011;5241;47.830;12.972;2023-09-18T14:00:10;1.20;;;0.90;;
10389;SDS011;5241;47.830;12.972;2023-09-18T14:02:37;4.67;;;1.20;;
10389;SDS011;5241;47.830;12.972;2023-09-18T14:05:03;0.77;;;0.67;;
10389;SDS011;5241;47.830;12.972;2023-09-18T14:07:29;1.07;;;0.87;;
10389;SDS011;5241;47.830;12.972;2023-09-18T14:09:55;2.67;;;0.90;;
10389;SDS011;5241;47.830;12.972;2023-09-18T14:12:21;1.43;;;0.60;;
10389;SDS011;5241;47.830;12.972;2023-09-18T14:14:47;0.90;;;0.73;;
10389;SDS011;5241;47.830;12.972;2023-09-18T14:17:12;1.03;;;0.87;;
10389;SDS011;5241;47.830;12.972;2023-09-18T14:19:38;1.77;;;1.00;;
10389;SDS011;5241;47.830;12.972;2023-09-18T14:22:05;0.77;;;0.70;;
10389;SDS011;5241;47.830;12.972;2023-09-18T14:24:31;1.80;;;0.80;;
10389;SDS011;5241;47.830;12.972;2023-09-18T14:26:59;2.60;;;0.90;;
10389;SDS011;5241;47.830;12.972;2023-09-18T14:29:25;3.30;;;0.93;;
10389;SDS011;5241;47.830;12.972;2023-09-18T14:31:51;1.33;;;0.67;;
10389;SDS011;5241;47.830;12.972;2023-09-18T14:34:17;3.50;;;0.80;;
10389;SDS011;5241;47.830;12.972;2023-09-18T14:36:42;0.50;;;0.50;;
10389;SDS011;5241;47.830;12.972;2023-09-18T14:39:09;3.20;;;0.70;;
10389;SDS011;5241;47.830;12.972;2023-09-18T14:41:35;0.97;;;0.70;;
10389;SDS011;5241;47.830;12.972;2023-09-18T14:44:03;0.90;;;0.53;;
10389;SDS011;5241;47.830;12.972;2023-09-18T14:46:29;0.50;;;0.50;;
10389;SDS011;5241;47.830;12.972;2023-09-18T14:48:58;0.40;;;0.40;;
10389;SDS011;5241;47.830;12.972;2023-09-18T14:51:25;0.73;;;0.57;;
10389;SDS011;5241;47.830;12.972;2023-09-18T14:53:50;0.30;;;0.30;;
10389;SDS011;5241;47.830;12.972;2023-09-18T14:56:16;0.70;;;0.30;;
10389;SDS011;5241;47.830;12.972;2023-09-18T14:58:41;0.53;;;0.50;;
10389;SDS011;5241;47.830;12.972;2023-09-18T15:01:08;0.60;;;0.60;;
10389;SDS011;5241;47.830;12.972;2023-09-18T15:03:35;0.57;;;0.33;;
10389;SDS011;5241;47.830;12.972;2023-09-18T15:06:00;1.77;;;0.57;;
10389;SDS011;5241;47.830;12.972;2023-09-18T15:08:26;0.50;;;0.50;;